createdAt,value
2019-03-30T00:01:00.566Z,3.17
2019-03-30T00:03:40.918Z,2.73
2019-03-30T00:06:21.192Z,3.43
2019-03-30T00:09:02.121Z,2.60
2019-03-30T00:11:43.218Z,3.80
2019-03-30T00:14:23.929Z,3.60
2019-03-30T00:17:04.129Z,3.60
2019-03-30T00:19:44.973Z,3.60
2019-03-30T00:22:25.853Z,3.83
2019-03-30T00:25:06.666Z,2.43
2019-03-30T00:27:47.837Z,2.93
2019-03-30T00:30:29.063Z,3.80
2019-03-30T00:33:09.248Z,3.80
2019-03-30T00:35:50.423Z,2.20
2019-03-30T00:38:31.537Z,2.73
2019-03-30T00:41:12.222Z,3.50
2019-03-30T00:43:52.901Z,2.50
2019-03-30T00:46:34.012Z,2.10
2019-03-30T00:49:15.058Z,4.10
2019-03-30T00:51:56.062Z,2.53
2019-03-30T00:57:48.656Z,3.27
2019-03-30T01:00:29.208Z,2.60
2019-03-30T01:03:09.981Z,2.50
2019-03-30T01:05:50.661Z,2.83
2019-03-30T01:08:31.320Z,2.07
2019-03-30T01:11:12.125Z,1.40
2019-03-30T01:13:53.446Z,2.60
2019-03-30T01:16:34.028Z,2.57
2019-03-30T01:19:14.825Z,2.90
2019-03-30T01:21:56.368Z,2.73
2019-03-30T01:24:36.809Z,3.27
2019-03-30T01:27:17.616Z,2.33
2019-03-30T01:29:58.257Z,3.93
2019-03-30T01:32:38.883Z,2.40
2019-03-30T01:35:19.620Z,2.27
2019-03-30T01:38:00.321Z,2.77
2019-03-30T01:40:40.854Z,2.13
2019-03-30T01:43:21.209Z,1.67
2019-03-30T01:46:01.642Z,1.33
2019-03-30T01:48:42.349Z,4.10
2019-03-30T01:51:22.800Z,2.77
2019-03-30T01:54:03.772Z,3.17
2019-03-30T01:56:44.725Z,4.23
2019-03-30T01:59:25.638Z,2.20
2019-03-30T02:02:04.405Z,2.50
2019-03-30T02:04:52.201Z,1.93
2019-03-30T02:07:40.091Z,2.00
2019-03-30T02:10:47.228Z,4.37
2019-03-30T02:13:35.024Z,2.83
2019-03-30T02:16:22.804Z,4.13
2019-03-30T02:22:04.443Z,3.07
2019-03-30T02:24:52.228Z,2.43
2019-03-30T02:27:40.001Z,2.00
2019-03-30T02:30:27.796Z,2.73
2019-03-30T02:33:15.569Z,1.73
2019-03-30T02:36:03.443Z,2.60
2019-03-30T02:38:51.283Z,2.90
2019-03-30T02:41:39.140Z,3.73
2019-03-30T02:44:26.922Z,3.50
2019-03-30T02:47:14.793Z,2.83
2019-03-30T02:50:02.562Z,2.50
2019-03-30T02:52:43.389Z,3.33
2019-03-30T02:55:24.249Z,3.83
2019-03-30T02:58:05.000Z,2.00
2019-03-30T03:00:45.753Z,2.30
2019-03-30T03:03:26.162Z,3.00
2019-03-30T03:06:07.174Z,1.17
2019-03-30T03:08:48.038Z,4.75
2019-03-30T03:11:28.753Z,3.17
2019-03-30T03:14:09.333Z,3.20
2019-03-30T03:16:50.363Z,2.20
2019-03-30T03:19:30.586Z,2.63
2019-03-30T03:22:11.714Z,2.77
2019-03-30T03:24:52.733Z,3.50
2019-03-30T03:27:33.808Z,1.70
2019-03-30T03:30:14.446Z,2.80
2019-03-30T03:32:55.181Z,3.70
2019-03-30T03:35:35.890Z,3.03
2019-03-30T03:38:16.960Z,2.60
2019-03-30T03:40:58.031Z,3.33
2019-03-30T03:43:38.641Z,2.53
2019-03-30T03:46:19.697Z,2.97
2019-03-30T03:49:00.104Z,1.67
2019-03-30T03:51:40.863Z,4.60
2019-03-30T03:54:21.385Z,2.80
2019-03-30T03:57:02.014Z,3.93
2019-03-30T03:59:43.198Z,1.40
2019-03-30T04:02:24.154Z,1.80
2019-03-30T04:05:04.833Z,4.17
2019-03-30T04:07:45.759Z,3.73
2019-03-30T04:10:26.300Z,2.20
2019-03-30T04:13:07.366Z,3.17
2019-03-30T04:15:48.125Z,3.08
2019-03-30T04:18:28.878Z,3.12
2019-03-30T04:21:09.630Z,2.90
2019-03-30T04:23:54.033Z,3.65
2019-03-30T04:26:32.814Z,2.03
2019-03-30T04:29:13.684Z,1.00
2019-03-30T04:31:54.494Z,3.33
2019-03-30T04:34:35.048Z,3.25
2019-03-30T04:37:16.184Z,3.43
2019-03-30T04:39:55.362Z,3.13
2019-03-30T04:42:43.156Z,2.37
2019-03-30T04:45:31.001Z,1.57
2019-03-30T04:51:25.682Z,2.60
2019-03-30T04:54:13.452Z,2.07
2019-03-30T04:57:01.273Z,2.50
2019-03-30T04:59:49.148Z,2.90
2019-03-30T05:02:36.948Z,3.60
2019-03-30T05:05:24.724Z,3.80
2019-03-30T05:08:12.520Z,2.70
2019-03-30T05:11:00.326Z,5.60
2019-03-30T05:13:41.195Z,5.93
2019-03-30T05:16:21.837Z,1.50
2019-03-30T05:19:03.002Z,1.33
2019-03-30T05:21:44.066Z,1.80
2019-03-30T05:24:25.197Z,3.97
2019-03-30T05:27:05.829Z,2.30
2019-03-30T05:29:46.720Z,2.47
2019-03-30T05:32:27.502Z,2.73
2019-03-30T05:35:07.909Z,2.63
2019-03-30T05:37:48.848Z,1.10
2019-03-30T05:40:29.261Z,2.60
2019-03-30T05:43:10.218Z,3.10
2019-03-30T05:45:51.366Z,3.30
2019-03-30T05:48:32.097Z,2.30
2019-03-30T05:51:12.781Z,3.13
2019-03-30T05:53:53.667Z,3.97
2019-03-30T05:56:34.731Z,3.47
2019-03-30T05:59:15.404Z,4.07
2019-03-30T06:01:56.476Z,3.50
2019-03-30T06:04:37.397Z,2.63
2019-03-30T06:07:18.232Z,3.53
2019-03-30T06:09:58.937Z,3.23
2019-03-30T06:12:39.702Z,3.60
2019-03-30T06:15:20.201Z,3.60
2019-03-30T06:18:01.058Z,3.40
2019-03-30T06:20:41.838Z,3.83
2019-03-30T06:23:22.825Z,2.40
2019-03-30T06:26:03.634Z,3.83
2019-03-30T06:28:44.301Z,3.20
2019-03-30T06:31:25.085Z,3.93
2019-03-30T06:34:05.830Z,3.80
2019-03-30T06:36:46.281Z,3.47
2019-03-30T06:39:27.037Z,4.03
2019-03-30T06:42:07.701Z,5.50
2019-03-30T06:44:48.717Z,5.50
2019-03-30T06:47:29.503Z,5.80
2019-03-30T06:50:10.028Z,5.80
2019-03-30T06:52:57.583Z,4.77
2019-03-30T06:55:33.134Z,4.50
2019-03-30T06:58:13.845Z,3.43
2019-03-30T07:00:54.788Z,4.90
2019-03-30T07:03:35.994Z,5.37
2019-03-30T07:06:16.856Z,5.33
2019-03-30T07:08:57.433Z,5.70
2019-03-30T07:11:38.445Z,4.80
2019-03-30T07:14:19.250Z,6.53
2019-03-30T07:17:01.772Z,5.27
2019-03-30T07:19:42.818Z,4.37
2019-03-30T07:22:23.076Z,6.67
2019-03-30T07:25:04.121Z,4.60
2019-03-30T07:27:44.709Z,5.70
2019-03-30T07:30:25.529Z,4.87
2019-03-30T07:33:06.221Z,6.57
2019-03-30T07:35:46.661Z,7.07
2019-03-30T07:38:27.374Z,6.03
2019-03-30T07:41:08.710Z,6.07
2019-03-30T07:43:49.265Z,5.93
2019-03-30T07:46:29.833Z,6.70
2019-03-30T07:49:10.838Z,6.87
2019-03-30T07:51:51.241Z,6.63
2019-03-30T07:57:30.360Z,6.03
2019-03-30T08:00:11.133Z,7.27
2019-03-30T08:02:52.237Z,7.50
2019-03-30T08:05:33.357Z,7.70
2019-03-30T08:08:14.121Z,8.23
2019-03-30T08:10:54.822Z,9.40
2019-03-30T08:13:33.585Z,8.00
2019-03-30T08:16:14.453Z,7.23
2019-03-30T08:21:53.690Z,6.97
2019-03-30T08:24:34.256Z,8.03
2019-03-30T08:27:15.197Z,8.50
2019-03-30T08:29:56.410Z,7.37
2019-03-30T08:32:36.881Z,7.57
2019-03-30T08:35:17.836Z,7.80
2019-03-30T08:40:54.993Z,7.70
2019-03-30T08:43:42.832Z,7.17
2019-03-30T08:46:30.766Z,7.70
2019-03-30T08:49:20.168Z,8.33
2019-03-30T08:52:07.963Z,6.93
2019-03-30T08:54:55.734Z,7.50
2019-03-30T08:57:43.521Z,7.43
2019-03-30T09:00:50.612Z,8.17
2019-03-30T09:03:38.417Z,7.43
2019-03-30T09:06:26.180Z,7.67
2019-03-30T09:09:13.970Z,7.37
2019-03-30T09:12:01.750Z,5.93
2019-03-30T09:14:42.130Z,7.13
2019-03-30T09:17:22.904Z,7.13
2019-03-30T09:20:01.658Z,6.40
2019-03-30T09:22:49.428Z,7.93
2019-03-30T09:25:37.220Z,7.00
2019-03-30T09:28:24.989Z,6.90
2019-03-30T09:31:12.779Z,6.80
2019-03-30T09:34:00.557Z,7.97
2019-03-30T09:36:48.413Z,7.27
2019-03-30T09:39:37.829Z,7.40
2019-03-30T09:42:25.624Z,5.63
2019-03-30T09:45:13.468Z,6.47
2019-03-30T09:48:01.252Z,6.90
2019-03-30T09:50:49.025Z,7.20
2019-03-30T09:53:36.820Z,8.83
2019-03-30T09:56:24.603Z,7.37
2019-03-30T09:59:12.487Z,6.80
2019-03-30T10:02:00.264Z,7.73
2019-03-30T10:04:48.056Z,7.67
2019-03-30T10:07:35.829Z,7.53
2019-03-30T10:10:23.633Z,7.20
2019-03-30T10:13:11.397Z,6.37
2019-03-30T10:15:51.668Z,8.10
2019-03-30T10:18:32.333Z,6.57
2019-03-30T10:21:13.052Z,6.60
2019-03-30T10:23:53.300Z,6.93
2019-03-30T10:26:34.344Z,6.63
2019-03-30T10:29:15.225Z,6.67
2019-03-30T10:31:56.016Z,6.07
2019-03-30T10:34:39.389Z,5.50
2019-03-30T10:37:19.536Z,5.10
2019-03-30T10:40:00.475Z,4.70
2019-03-30T10:42:41.138Z,4.83
2019-03-30T10:45:21.669Z,5.60
2019-03-30T10:48:02.731Z,4.43
2019-03-30T10:50:43.394Z,4.63
2019-03-30T10:53:24.338Z,6.03
2019-03-30T10:56:05.189Z,5.07
2019-03-30T10:58:45.796Z,6.33
2019-03-30T11:01:26.669Z,5.67
2019-03-30T11:04:07.684Z,5.60
2019-03-30T11:06:48.553Z,6.60
2019-03-30T11:09:29.540Z,6.40
2019-03-30T11:12:10.393Z,5.67
2019-03-30T11:14:51.352Z,5.23
2019-03-30T11:17:31.924Z,4.87
2019-03-30T11:20:12.636Z,6.17
2019-03-30T11:22:53.633Z,6.67
2019-03-30T11:25:34.156Z,4.70
2019-03-30T11:28:14.922Z,5.70
2019-03-30T11:30:55.644Z,4.93
2019-03-30T11:33:36.400Z,6.10
2019-03-30T11:36:18.713Z,5.27
2019-03-30T11:38:59.282Z,6.10
2019-03-30T11:41:39.966Z,5.00
2019-03-30T11:44:20.508Z,5.00
2019-03-30T11:47:01.539Z,4.90
2019-03-30T11:49:42.568Z,4.60
2019-03-30T11:52:23.091Z,4.87
2019-03-30T11:55:04.106Z,5.90
2019-03-30T11:57:45.253Z,5.60
2019-03-30T12:00:25.881Z,4.20
2019-03-30T12:03:06.426Z,4.30
2019-03-30T12:05:47.423Z,4.73
2019-03-30T12:08:27.785Z,5.10
2019-03-30T12:11:08.891Z,5.57
2019-03-30T12:13:49.440Z,5.50
2019-03-30T12:16:30.441Z,4.03
2019-03-30T12:19:11.049Z,4.60
2019-03-30T12:21:51.760Z,4.27
2019-03-30T12:24:32.630Z,4.43
2019-03-30T12:30:25.629Z,3.30
2019-03-30T12:33:06.610Z,4.20
2019-03-30T12:35:47.288Z,2.97
2019-03-30T12:38:28.081Z,3.27
2019-03-30T12:41:08.889Z,3.13
2019-03-30T12:43:49.659Z,2.90
2019-03-30T12:46:30.497Z,2.10
2019-03-30T12:49:11.350Z,3.30
2019-03-30T12:51:52.308Z,1.93
2019-03-30T12:54:33.350Z,4.40
2019-03-30T12:57:14.213Z,3.47
2019-03-30T12:59:55.061Z,3.00
2019-03-30T13:02:35.978Z,2.87
2019-03-30T13:05:16.502Z,2.80
2019-03-30T13:07:57.167Z,4.57
2019-03-30T13:10:38.210Z,3.80
2019-03-30T13:13:18.886Z,2.93
2019-03-30T13:15:59.748Z,2.00
2019-03-30T13:18:40.470Z,4.40
2019-03-30T13:21:21.242Z,3.30
2019-03-30T13:24:02.192Z,3.20
2019-03-30T13:26:42.827Z,3.40
2019-03-30T13:29:23.769Z,2.73
2019-03-30T13:32:04.848Z,3.73
2019-03-30T13:34:45.909Z,3.50
2019-03-30T13:37:26.348Z,3.30
2019-03-30T13:40:07.421Z,3.43
2019-03-30T13:42:48.327Z,2.67
2019-03-30T13:45:29.246Z,3.37
2019-03-30T13:48:10.125Z,2.60
2019-03-30T13:50:50.702Z,3.80
2019-03-30T13:53:31.656Z,3.37
2019-03-30T13:56:17.430Z,2.97
2019-03-30T13:58:54.309Z,3.43
2019-03-30T14:01:35.041Z,2.90
2019-03-30T14:04:16.013Z,3.40
2019-03-30T14:06:56.977Z,3.40
2019-03-30T14:09:37.941Z,2.47
2019-03-30T14:12:18.609Z,3.50
2019-03-30T14:14:59.684Z,3.50
2019-03-30T14:17:40.354Z,4.00
2019-03-30T14:20:21.253Z,4.00
2019-03-30T14:23:02.425Z,4.20
2019-03-30T14:25:43.368Z,4.10
2019-03-30T14:28:24.212Z,3.83
2019-03-30T14:31:04.433Z,2.70
2019-03-30T14:33:45.600Z,2.53
2019-03-30T14:36:26.391Z,3.40
2019-03-30T14:39:07.546Z,4.00
2019-03-30T14:41:48.157Z,3.53
2019-03-30T14:44:28.378Z,3.53
2019-03-30T14:47:09.454Z,3.20
2019-03-30T14:49:50.320Z,4.30
2019-03-30T14:52:30.911Z,4.50
2019-03-30T14:55:11.717Z,3.67
2019-03-30T14:57:52.693Z,3.23
2019-03-30T15:00:33.396Z,3.50
2019-03-30T15:03:14.300Z,3.90
2019-03-30T15:05:54.869Z,4.10
2019-03-30T15:08:35.376Z,3.90
2019-03-30T15:11:16.130Z,3.20
2019-03-30T15:13:57.001Z,3.97
2019-03-30T15:16:37.637Z,3.57
2019-03-30T15:19:18.367Z,4.67
2019-03-30T15:21:59.001Z,4.03
2019-03-30T15:24:39.994Z,3.80
2019-03-30T15:27:20.432Z,2.80
2019-03-30T15:30:01.302Z,3.20
2019-03-30T15:32:42.154Z,4.20
2019-03-30T15:35:23.182Z,3.43
2019-03-30T15:38:04.150Z,3.40
2019-03-30T15:40:44.585Z,3.20
2019-03-30T15:43:37.568Z,3.13
2019-03-30T15:46:07.797Z,4.40
2019-03-30T15:48:48.805Z,2.40
2019-03-30T15:51:29.429Z,4.43
2019-03-30T15:54:10.280Z,2.80
2019-03-30T15:56:51.309Z,3.47
2019-03-30T15:59:32.405Z,3.07
2019-03-30T16:02:13.102Z,3.80
2019-03-30T16:04:54.273Z,4.83
2019-03-30T16:07:35.333Z,4.20
2019-03-30T16:10:16.071Z,5.60
2019-03-30T16:12:56.689Z,4.03
2019-03-30T16:15:37.541Z,4.37
2019-03-30T16:18:18.305Z,4.37
2019-03-30T16:20:59.296Z,3.90
2019-03-30T16:23:40.296Z,4.47
2019-03-30T16:26:21.413Z,5.10
2019-03-30T16:29:00.377Z,4.10
2019-03-30T16:31:48.236Z,3.57
2019-03-30T16:34:36.009Z,3.57
2019-03-30T16:37:23.813Z,3.47
2019-03-30T16:40:11.657Z,3.70
2019-03-30T16:42:59.445Z,3.77
2019-03-30T16:45:47.222Z,4.13
2019-03-30T16:48:36.733Z,5.53
2019-03-30T16:51:24.497Z,4.20
2019-03-30T16:54:12.288Z,4.00
2019-03-30T16:57:00.060Z,3.73
2019-03-30T16:59:47.852Z,3.70
2019-03-30T17:02:35.624Z,4.10
2019-03-30T17:05:23.417Z,3.77
2019-03-30T17:08:11.184Z,4.17
2019-03-30T17:10:59.046Z,5.03
2019-03-30T17:13:46.816Z,3.27
2019-03-30T17:16:34.605Z,4.17
2019-03-30T17:19:15.600Z,4.20
2019-03-30T17:21:56.335Z,3.67
2019-03-30T17:24:37.051Z,4.07
2019-03-30T17:27:18.174Z,3.80
2019-03-30T17:29:58.834Z,3.37
2019-03-30T17:32:39.424Z,4.10
2019-03-30T17:35:20.195Z,3.30
2019-03-30T17:38:00.775Z,4.47
2019-03-30T17:40:41.582Z,4.43
2019-03-30T17:43:22.485Z,4.60
2019-03-30T17:46:03.338Z,3.20
2019-03-30T17:48:42.152Z,3.80
2019-03-30T17:51:29.930Z,2.97
2019-03-30T17:54:17.717Z,4.30
2019-03-30T17:57:05.490Z,4.10
2019-03-30T17:59:53.279Z,4.07
2019-03-30T18:02:41.088Z,4.50
2019-03-30T18:05:29.020Z,5.40
2019-03-30T18:08:18.428Z,3.07
2019-03-30T18:11:06.217Z,3.00
2019-03-30T18:13:53.987Z,2.90
2019-03-30T18:16:41.772Z,2.83
2019-03-30T18:19:22.083Z,2.67
2019-03-30T18:22:02.809Z,4.03
2019-03-30T18:24:43.544Z,3.10
2019-03-30T18:27:24.653Z,3.27
2019-03-30T18:30:05.551Z,3.33
2019-03-30T18:35:44.961Z,2.97
2019-03-30T18:38:25.305Z,5.20
2019-03-30T18:41:06.024Z,8.47
2019-03-30T18:43:47.033Z,5.53
2019-03-30T18:46:27.273Z,3.40
2019-03-30T18:49:08.114Z,2.87
2019-03-30T18:51:49.144Z,3.37
2019-03-30T18:54:30.300Z,3.47
2019-03-30T18:57:11.245Z,4.77
2019-03-30T18:59:50.071Z,3.70
2019-03-30T19:02:37.889Z,4.33
2019-03-30T19:05:25.674Z,5.53
2019-03-30T19:08:13.451Z,5.30
2019-03-30T19:11:01.243Z,10.20
2019-03-30T19:13:51.450Z,9.57
2019-03-30T19:16:38.541Z,9.00
2019-03-30T19:19:19.138Z,5.47
2019-03-30T19:22:00.114Z,4.93
2019-03-30T19:24:40.345Z,7.20
2019-03-30T19:27:21.419Z,8.10
2019-03-30T19:30:02.507Z,8.07
2019-03-30T19:32:43.482Z,5.23
2019-03-30T19:35:24.405Z,5.53
2019-03-30T19:38:05.094Z,5.83
2019-03-30T19:40:45.497Z,5.90
2019-03-30T19:43:26.457Z,4.67
2019-03-30T19:46:06.865Z,6.90
2019-03-30T19:48:47.605Z,7.03
2019-03-30T19:51:28.537Z,6.73
2019-03-30T19:54:09.297Z,5.50
2019-03-30T19:56:50.385Z,6.57
2019-03-30T19:59:31.334Z,6.40
2019-03-30T20:02:11.838Z,7.47
2019-03-30T20:04:52.868Z,7.30
2019-03-30T20:07:33.719Z,7.20
2019-03-30T20:10:14.666Z,7.40
2019-03-30T20:12:55.627Z,4.67
2019-03-30T20:15:36.363Z,4.40
2019-03-30T20:18:17.446Z,5.30
2019-03-30T20:20:58.143Z,4.73
2019-03-30T20:23:39.125Z,6.60
2019-03-30T20:26:20.045Z,4.47
2019-03-30T20:29:01.065Z,4.60
2019-03-30T20:31:41.905Z,4.37
2019-03-30T20:34:22.813Z,4.50
2019-03-30T20:37:03.125Z,4.80
2019-03-30T20:39:43.986Z,4.93
2019-03-30T20:42:25.027Z,3.93
2019-03-30T20:45:05.279Z,5.10
2019-03-30T20:47:45.956Z,3.60
2019-03-30T20:50:26.905Z,3.83
2019-03-30T20:53:07.618Z,3.50
2019-03-30T20:55:48.572Z,4.40
2019-03-30T20:58:29.464Z,3.37
2019-03-30T21:01:10.461Z,4.80
2019-03-30T21:03:51.070Z,3.53
2019-03-30T21:06:32.029Z,5.07
2019-03-30T21:09:12.672Z,2.87
2019-03-30T21:11:53.374Z,4.37
2019-03-30T21:14:34.398Z,3.23
2019-03-30T21:17:15.357Z,2.80
2019-03-30T21:19:56.307Z,3.50
2019-03-30T21:22:36.804Z,4.30
2019-03-30T21:25:17.870Z,3.50
2019-03-30T21:31:11.190Z,4.37
2019-03-30T21:33:52.244Z,5.07
2019-03-30T21:36:32.576Z,4.40
2019-03-30T21:39:13.756Z,3.20
2019-03-30T21:41:54.325Z,4.13
2019-03-30T21:44:35.125Z,5.30
2019-03-30T21:47:16.301Z,4.83
2019-03-30T21:49:57.102Z,4.97
2019-03-30T21:52:37.406Z,3.30
2019-03-30T21:55:17.977Z,3.23
2019-03-30T21:57:58.879Z,5.20
2019-03-30T22:00:39.454Z,4.90
2019-03-30T22:03:20.245Z,5.53
2019-03-30T22:06:01.013Z,4.93
2019-03-30T22:08:41.796Z,4.97
2019-03-30T22:11:22.646Z,5.70
2019-03-30T22:14:03.469Z,6.13
2019-03-30T22:16:44.172Z,4.43
2019-03-30T22:19:25.177Z,3.87
2019-03-30T22:22:05.828Z,3.30
2019-03-30T22:24:46.820Z,4.10
2019-03-30T22:27:27.444Z,4.63
2019-03-30T22:30:08.505Z,5.23
2019-03-30T22:32:49.269Z,5.20
2019-03-30T22:35:30.009Z,5.10
2019-03-30T22:38:10.952Z,4.33
2019-03-30T22:40:51.939Z,5.30
2019-03-30T22:43:32.733Z,5.20
2019-03-30T22:46:13.677Z,4.50
2019-03-30T22:48:53.857Z,2.97
2019-03-30T22:51:34.623Z,4.27
2019-03-30T22:54:15.384Z,4.37
2019-03-30T22:56:56.333Z,4.07
2019-03-30T22:59:37.269Z,3.13
2019-03-30T23:02:17.988Z,2.10
2019-03-30T23:08:09.089Z,2.93
2019-03-30T23:10:56.856Z,5.17
2019-03-30T23:13:44.635Z,2.63
2019-03-30T23:16:32.403Z,3.80
2019-03-30T23:19:20.196Z,3.00
2019-03-30T23:22:07.969Z,3.97
2019-03-30T23:27:49.570Z,2.67
2019-03-30T23:30:53.145Z,4.30
2019-03-30T23:33:21.251Z,3.33
2019-03-30T23:36:02.132Z,3.63
2019-03-30T23:38:42.809Z,3.17
2019-03-30T23:41:23.600Z,4.40
2019-03-30T23:44:04.368Z,3.10
2019-03-30T23:46:45.137Z,5.07
2019-03-30T23:49:26.104Z,3.87
2019-03-30T23:52:06.926Z,4.57
2019-03-30T23:54:47.983Z,5.23
2019-03-30T23:57:28.888Z,3.80
